sensor_id;sensor_type;location;lat;lon;timestamp;P1;durP1;ratioP1;P2;durP2;ratioP2
8893;SDS011;4483;48.622;9.230;2023-03-01T00:02:14;11.37;;;7.53;;
8893;SDS011;4483;48.622;9.230;2023-03-01T00:04:40;10.40;;;7.37;;
8893;SDS011;4483;48.622;9.230;2023-03-01T00:07:07;7.87;;;6.70;;
8893;SDS011;4483;48.622;9.230;2023-03-01T00:09:35;9.50;;;7.10;;
8893;SDS011;4483;48.622;9.230;2023-03-01T00:12:02;10.60;;;6.97;;
8893;SDS011;4483;48.622;9.230;2023-03-01T00:14:29;12.73;;;7.20;;
8893;SDS011;4483;48.622;9.230;2023-03-01T00:16:56;10.07;;;6.90;;
8893;SDS011;4483;48.622;9.230;2023-03-01T00:19:23;9.23;;;7.10;;
8893;SDS011;4483;48.622;9.230;2023-03-01T00:21:50;10.17;;;7.37;;
8893;SDS011;4483;48.622;9.230;2023-03-01T00:24:17;12.23;;;7.50;;
8893;SDS011;4483;48.622;9.230;2023-03-01T00:26:45;11.27;;;7.20;;
8893;SDS011;4483;48.622;9.230;2023-03-01T00:29:11;9.77;;;7.30;;
8893;SDS011;4483;48.622;9.230;2023-03-01T00:31:38;10.67;;;7.30;;
8893;SDS011;4483;48.622;9.230;2023-03-01T00:34:05;8.73;;;6.93;;
8893;SDS011;4483;48.622;9.230;2023-03-01T00:36:33;7.97;;;6.80;;
8893;SDS011;4483;48.622;9.230;2023-03-01T00:39:01;9.13;;;6.70;;
8893;SDS011;4483;48.622;9.230;2023-03-01T00:41:29;11.43;;;6.07;;
8893;SDS011;4483;48.622;9.230;2023-03-01T00:43:58;8.77;;;6.93;;
8893;SDS011;4483;48.622;9.230;2023-03-01T00:46:25;12.73;;;7.93;;
8893;SDS011;4483;48.622;9.230;2023-03-01T00:48:55;10.77;;;7.17;;
8893;SDS011;4483;48.622;9.230;2023-03-01T00:51:22;10.03;;;7.50;;
8893;SDS011;4483;48.622;9.230;2023-03-01T00:53:50;11.60;;;7.27;;
8893;SDS011;4483;48.622;9.230;2023-03-01T00:56:18;10.37;;;7.63;;
8893;SDS011;4483;48.622;9.230;2023-03-01T00:58:45;10.07;;;7.50;;
8893;SDS011;4483;48.622;9.230;2023-03-01T01:01:14;10.93;;;7.60;;
8893;SDS011;4483;48.622;9.230;2023-03-01T01:03:50;11.27;;;7.73;;
8893;SDS011;4483;48.622;9.230;2023-03-01T01:06:19;11.67;;;7.27;;
8893;SDS011;4483;48.622;9.230;2023-03-01T01:08:47;18.07;;;8.03;;
8893;SDS011;4483;48.622;9.230;2023-03-01T01:11:14;11.67;;;7.20;;
8893;SDS011;4483;48.622;9.230;2023-03-01T01:13:43;14.83;;;7.90;;
8893;SDS011;4483;48.622;9.230;2023-03-01T01:16:10;15.07;;;8.00;;
8893;SDS011;4483;48.622;9.230;2023-03-01T01:18:39;10.80;;;7.57;;
8893;SDS011;4483;48.622;9.230;2023-03-01T01:21:06;13.47;;;8.10;;
8893;SDS011;4483;48.622;9.230;2023-03-01T01:23:35;15.03;;;7.47;;
8893;SDS011;4483;48.622;9.230;2023-03-01T01:26:03;12.00;;;7.70;;
8893;SDS011;4483;48.622;9.230;2023-03-01T01:28:31;12.50;;;8.23;;
8893;SDS011;4483;48.622;9.230;2023-03-01T01:30:58;10.90;;;8.10;;
8893;SDS011;4483;48.622;9.230;2023-03-01T01:33:26;16.13;;;7.80;;
8893;SDS011;4483;48.622;9.230;2023-03-01T01:35:53;11.77;;;7.63;;
8893;SDS011;4483;48.622;9.230;2023-03-01T01:38:19;11.03;;;7.87;;
8893;SDS011;4483;48.622;9.230;2023-03-01T01:40:48;10.90;;;8.10;;
8893;SDS011;4483;48.622;9.230;2023-03-01T01:43:19;13.47;;;8.23;;
8893;SDS011;4483;48.622;9.230;2023-03-01T01:45:48;11.87;;;8.13;;
8893;SDS011;4483;48.622;9.230;2023-03-01T01:48:16;10.53;;;7.67;;
8893;SDS011;4483;48.622;9.230;2023-03-01T01:50:49;13.30;;;8.30;;
8893;SDS011;4483;48.622;9.230;2023-03-01T01:53:21;10.93;;;8.10;;
8893;SDS011;4483;48.622;9.230;2023-03-01T01:55:49;10.03;;;6.80;;
8893;SDS011;4483;48.622;9.230;2023-03-01T01:58:22;11.10;;;8.00;;
8893;SDS011;4483;48.622;9.230;2023-03-01T02:00:51;18.47;;;7.67;;
8893;SDS011;4483;48.622;9.230;2023-03-01T02:03:20;11.23;;;7.40;;
8893;SDS011;4483;48.622;9.230;2023-03-01T02:05:52;10.87;;;7.33;;
8893;SDS011;4483;48.622;9.230;2023-03-01T02:08:25;9.73;;;7.33;;
8893;SDS011;4483;48.622;9.230;2023-03-01T02:10:55;12.13;;;7.03;;
8893;SDS011;4483;48.622;9.230;2023-03-01T02:13:24;9.70;;;7.43;;
8893;SDS011;4483;48.622;9.230;2023-03-01T02:15:51;10.57;;;7.70;;
8893;SDS011;4483;48.622;9.230;2023-03-01T02:18:19;11.20;;;8.43;;
8893;SDS011;4483;48.622;9.230;2023-03-01T02:20:54;13.23;;;8.37;;
8893;SDS011;4483;48.622;9.230;2023-03-01T02:23:28;12.03;;;8.40;;
8893;SDS011;4483;48.622;9.230;2023-03-01T02:25:57;9.27;;;7.50;;
8893;SDS011;4483;48.622;9.230;2023-03-01T02:28:33;11.77;;;7.57;;
8893;SDS011;4483;48.622;9.230;2023-03-01T02:31:02;12.93;;;7.77;;
8893;SDS011;4483;48.622;9.230;2023-03-01T02:33:48;10.57;;;7.67;;
8893;SDS011;4483;48.622;9.230;2023-03-01T02:36:15;11.63;;;7.97;;
8893;SDS011;4483;48.622;9.230;2023-03-01T02:38:45;12.73;;;8.27;;
8893;SDS011;4483;48.622;9.230;2023-03-01T02:41:13;9.97;;;8.10;;
8893;SDS011;4483;48.622;9.230;2023-03-01T02:43:45;12.67;;;8.73;;
8893;SDS011;4483;48.622;9.230;2023-03-01T02:46:15;10.37;;;7.93;;
8893;SDS011;4483;48.622;9.230;2023-03-01T02:48:44;12.30;;;7.77;;
8893;SDS011;4483;48.622;9.230;2023-03-01T02:51:24;11.17;;;7.53;;
8893;SDS011;4483;48.622;9.230;2023-03-01T02:54:00;10.60;;;7.83;;
8893;SDS011;4483;48.622;9.230;2023-03-01T02:56:34;13.27;;;7.83;;
8893;SDS011;4483;48.622;9.230;2023-03-01T02:59:03;12.43;;;8.07;;
8893;SDS011;4483;48.622;9.230;2023-03-01T03:01:30;12.77;;;8.17;;
8893;SDS011;4483;48.622;9.230;2023-03-01T03:04:02;13.60;;;8.27;;
8893;SDS011;4483;48.622;9.230;2023-03-01T03:06:29;11.13;;;8.10;;
8893;SDS011;4483;48.622;9.230;2023-03-01T03:08:56;11.30;;;8.00;;
8893;SDS011;4483;48.622;9.230;2023-03-01T03:11:23;12.33;;;8.00;;
8893;SDS011;4483;48.622;9.230;2023-03-01T03:13:51;10.60;;;7.70;;
8893;SDS011;4483;48.622;9.230;2023-03-01T03:16:19;11.43;;;7.53;;
8893;SDS011;4483;48.622;9.230;2023-03-01T03:18:45;14.17;;;8.37;;
8893;SDS011;4483;48.622;9.230;2023-03-01T03:21:14;10.43;;;8.10;;
8893;SDS011;4483;48.622;9.230;2023-03-01T03:23:41;12.37;;;8.60;;
8893;SDS011;4483;48.622;9.230;2023-03-01T03:26:08;10.67;;;8.57;;
8893;SDS011;4483;48.622;9.230;2023-03-01T03:28:38;11.47;;;7.83;;
8893;SDS011;4483;48.622;9.230;2023-03-01T03:31:06;12.70;;;8.43;;
8893;SDS011;4483;48.622;9.230;2023-03-01T03:33:35;12.33;;;8.57;;
8893;SDS011;4483;48.622;9.230;2023-03-01T03:36:02;16.13;;;8.47;;
8893;SDS011;4483;48.622;9.230;2023-03-01T03:38:29;13.10;;;8.27;;
8893;SDS011;4483;48.622;9.230;2023-03-01T03:40:59;10.03;;;7.67;;
8893;SDS011;4483;48.622;9.230;2023-03-01T03:43:29;12.07;;;7.90;;
8893;SDS011;4483;48.622;9.230;2023-03-01T03:45:56;12.73;;;8.83;;
8893;SDS011;4483;48.622;9.230;2023-03-01T03:48:24;12.23;;;8.90;;
8893;SDS011;4483;48.622;9.230;2023-03-01T03:50:52;12.70;;;8.70;;
8893;SDS011;4483;48.622;9.230;2023-03-01T03:53:20;13.83;;;7.93;;
8893;SDS011;4483;48.622;9.230;2023-03-01T03:55:48;10.63;;;7.97;;
8893;SDS011;4483;48.622;9.230;2023-03-01T03:58:17;12.90;;;8.00;;
8893;SDS011;4483;48.622;9.230;2023-03-01T04:00:45;11.63;;;8.67;;
8893;SDS011;4483;48.622;9.230;2023-03-01T04:03:14;11.13;;;7.57;;
8893;SDS011;4483;48.622;9.230;2023-03-01T04:05:43;12.77;;;7.67;;
8893;SDS011;4483;48.622;9.230;2023-03-01T04:08:12;10.77;;;8.50;;
8893;SDS011;4483;48.622;9.230;2023-03-01T04:10:40;12.20;;;8.47;;
8893;SDS011;4483;48.622;9.230;2023-03-01T04:13:10;11.03;;;8.13;;
8893;SDS011;4483;48.622;9.230;2023-03-01T04:15:38;11.50;;;8.10;;
8893;SDS011;4483;48.622;9.230;2023-03-01T04:18:05;11.03;;;8.37;;
8893;SDS011;4483;48.622;9.230;2023-03-01T04:20:33;14.40;;;8.47;;
8893;SDS011;4483;48.622;9.230;2023-03-01T04:23:02;10.70;;;7.67;;
8893;SDS011;4483;48.622;9.230;2023-03-01T04:25:37;13.90;;;9.70;;
8893;SDS011;4483;48.622;9.230;2023-03-01T04:28:05;12.47;;;9.33;;
8893;SDS011;4483;48.622;9.230;2023-03-01T04:30:32;11.33;;;8.43;;
8893;SDS011;4483;48.622;9.230;2023-03-01T04:33:01;14.60;;;8.80;;
8893;SDS011;4483;48.622;9.230;2023-03-01T04:35:28;13.57;;;8.43;;
8893;SDS011;4483;48.622;9.230;2023-03-01T04:37:55;14.10;;;9.37;;
8893;SDS011;4483;48.622;9.230;2023-03-01T04:40:21;11.80;;;8.93;;
8893;SDS011;4483;48.622;9.230;2023-03-01T04:42:50;11.83;;;8.70;;
8893;SDS011;4483;48.622;9.230;2023-03-01T04:45:16;9.97;;;8.20;;
8893;SDS011;4483;48.622;9.230;2023-03-01T04:47:43;14.07;;;8.47;;
8893;SDS011;4483;48.622;9.230;2023-03-01T04:50:12;13.10;;;10.10;;
8893;SDS011;4483;48.622;9.230;2023-03-01T04:52:41;13.43;;;9.70;;
8893;SDS011;4483;48.622;9.230;2023-03-01T04:55:08;16.60;;;8.50;;
8893;SDS011;4483;48.622;9.230;2023-03-01T04:57:35;14.10;;;9.53;;
8893;SDS011;4483;48.622;9.230;2023-03-01T05:00:04;15.30;;;9.67;;
8893;SDS011;4483;48.622;9.230;2023-03-01T05:02:45;12.37;;;9.00;;
8893;SDS011;4483;48.622;9.230;2023-03-01T05:05:13;11.53;;;9.03;;
8893;SDS011;4483;48.622;9.230;2023-03-01T05:07:40;15.70;;;10.37;;
8893;SDS011;4483;48.622;9.230;2023-03-01T05:10:07;14.43;;;10.13;;
8893;SDS011;4483;48.622;9.230;2023-03-01T05:12:34;14.87;;;10.07;;
8893;SDS011;4483;48.622;9.230;2023-03-01T05:15:04;14.00;;;10.07;;
8893;SDS011;4483;48.622;9.230;2023-03-01T05:17:32;13.90;;;10.20;;
8893;SDS011;4483;48.622;9.230;2023-03-01T05:19:58;15.60;;;10.47;;
8893;SDS011;4483;48.622;9.230;2023-03-01T05:22:26;17.60;;;11.37;;
8893;SDS011;4483;48.622;9.230;2023-03-01T05:24:52;15.50;;;10.60;;
8893;SDS011;4483;48.622;9.230;2023-03-01T05:27:20;20.17;;;10.83;;
8893;SDS011;4483;48.622;9.230;2023-03-01T05:29:47;18.23;;;11.37;;
8893;SDS011;4483;48.622;9.230;2023-03-01T05:32:15;14.83;;;10.57;;
8893;SDS011;4483;48.622;9.230;2023-03-01T05:34:42;14.47;;;10.43;;
8893;SDS011;4483;48.622;9.230;2023-03-01T05:37:11;15.30;;;10.80;;
8893;SDS011;4483;48.622;9.230;2023-03-01T05:39:38;18.40;;;10.73;;
8893;SDS011;4483;48.622;9.230;2023-03-01T05:42:09;15.90;;;10.10;;
8893;SDS011;4483;48.622;9.230;2023-03-01T05:44:36;16.17;;;11.27;;
8893;SDS011;4483;48.622;9.230;2023-03-01T05:47:03;16.23;;;11.30;;
8893;SDS011;4483;48.622;9.230;2023-03-01T05:49:32;16.23;;;10.70;;
8893;SDS011;4483;48.622;9.230;2023-03-01T05:51:59;17.27;;;11.30;;
8893;SDS011;4483;48.622;9.230;2023-03-01T05:54:26;15.83;;;11.40;;
8893;SDS011;4483;48.622;9.230;2023-03-01T05:56:52;17.50;;;10.97;;
8893;SDS011;4483;48.622;9.230;2023-03-01T05:59:19;19.00;;;11.13;;
8893;SDS011;4483;48.622;9.230;2023-03-01T06:01:46;20.57;;;11.23;;
8893;SDS011;4483;48.622;9.230;2023-03-01T06:04:12;15.00;;;10.73;;
8893;SDS011;4483;48.622;9.230;2023-03-01T06:06:40;14.63;;;10.77;;
8893;SDS011;4483;48.622;9.230;2023-03-01T06:09:07;19.50;;;11.97;;
8893;SDS011;4483;48.622;9.230;2023-03-01T06:11:34;15.93;;;11.37;;
8893;SDS011;4483;48.622;9.230;2023-03-01T06:14:02;14.93;;;10.57;;
8893;SDS011;4483;48.622;9.230;2023-03-01T06:16:29;16.43;;;11.03;;
8893;SDS011;4483;48.622;9.230;2023-03-01T06:18:56;14.93;;;10.00;;
8893;SDS011;4483;48.622;9.230;2023-03-01T06:21:22;14.50;;;10.10;;
8893;SDS011;4483;48.622;9.230;2023-03-01T06:23:51;17.13;;;11.43;;
8893;SDS011;4483;48.622;9.230;2023-03-01T06:26:17;16.30;;;10.97;;
8893;SDS011;4483;48.622;9.230;2023-03-01T06:28:44;17.03;;;11.43;;
8893;SDS011;4483;48.622;9.230;2023-03-01T06:31:11;15.93;;;10.80;;
8893;SDS011;4483;48.622;9.230;2023-03-01T06:33:38;16.57;;;10.80;;
8893;SDS011;4483;48.622;9.230;2023-03-01T06:36:05;13.43;;;10.40;;
8893;SDS011;4483;48.622;9.230;2023-03-01T06:38:32;16.90;;;11.00;;
8893;SDS011;4483;48.622;9.230;2023-03-01T06:41:00;15.90;;;11.23;;
8893;SDS011;4483;48.622;9.230;2023-03-01T06:43:27;17.70;;;11.00;;
8893;SDS011;4483;48.622;9.230;2023-03-01T06:45:54;15.20;;;11.17;;
8893;SDS011;4483;48.622;9.230;2023-03-01T06:48:20;23.00;;;11.07;;
8893;SDS011;4483;48.622;9.230;2023-03-01T06:50:47;16.43;;;10.73;;
8893;SDS011;4483;48.622;9.230;2023-03-01T06:53:13;16.10;;;11.10;;
8893;SDS011;4483;48.622;9.230;2023-03-01T06:55:40;15.87;;;11.40;;
8893;SDS011;4483;48.622;9.230;2023-03-01T06:58:09;13.33;;;10.50;;
8893;SDS011;4483;48.622;9.230;2023-03-01T07:00:36;22.43;;;11.30;;
8893;SDS011;4483;48.622;9.230;2023-03-01T07:03:05;19.17;;;11.37;;
8893;SDS011;4483;48.622;9.230;2023-03-01T07:05:32;18.70;;;11.33;;
8893;SDS011;4483;48.622;9.230;2023-03-01T07:07:59;17.63;;;11.80;;
8893;SDS011;4483;48.622;9.230;2023-03-01T07:10:26;17.20;;;11.33;;
8893;SDS011;4483;48.622;9.230;2023-03-01T07:12:54;18.43;;;11.23;;
8893;SDS011;4483;48.622;9.230;2023-03-01T07:15:23;17.33;;;10.90;;
8893;SDS011;4483;48.622;9.230;2023-03-01T07:17:50;15.13;;;10.87;;
8893;SDS011;4483;48.622;9.230;2023-03-01T07:20:17;15.63;;;10.83;;
8893;SDS011;4483;48.622;9.230;2023-03-01T07:22:47;14.93;;;10.77;;
8893;SDS011;4483;48.622;9.230;2023-03-01T07:25:14;16.00;;;10.87;;
8893;SDS011;4483;48.622;9.230;2023-03-01T07:27:41;14.50;;;10.77;;
8893;SDS011;4483;48.622;9.230;2023-03-01T07:30:08;15.27;;;10.73;;
8893;SDS011;4483;48.622;9.230;2023-03-01T07:32:37;13.97;;;10.33;;
8893;SDS011;4483;48.622;9.230;2023-03-01T07:35:04;17.97;;;11.03;;
8893;SDS011;4483;48.622;9.230;2023-03-01T07:37:31;15.93;;;10.50;;
8893;SDS011;4483;48.622;9.230;2023-03-01T07:39:57;15.70;;;10.80;;
8893;SDS011;4483;48.622;9.230;2023-03-01T07:42:24;14.70;;;11.00;;
8893;SDS011;4483;48.622;9.230;2023-03-01T07:44:51;15.20;;;10.77;;
8893;SDS011;4483;48.622;9.230;2023-03-01T07:47:17;15.53;;;11.60;;
8893;SDS011;4483;48.622;9.230;2023-03-01T07:49:45;22.80;;;11.97;;
8893;SDS011;4483;48.622;9.230;2023-03-01T07:52:12;15.90;;;10.80;;
8893;SDS011;4483;48.622;9.230;2023-03-01T07:54:42;13.30;;;10.60;;
8893;SDS011;4483;48.622;9.230;2023-03-01T07:57:09;14.70;;;10.53;;
8893;SDS011;4483;48.622;9.230;2023-03-01T07:59:36;14.87;;;10.97;;
8893;SDS011;4483;48.622;9.230;2023-03-01T08:02:02;18.47;;;11.03;;
8893;SDS011;4483;48.622;9.230;2023-03-01T08:04:29;16.20;;;11.17;;
8893;SDS011;4483;48.622;9.230;2023-03-01T08:06:57;13.43;;;10.37;;
8893;SDS011;4483;48.622;9.230;2023-03-01T08:09:24;13.97;;;9.77;;
8893;SDS011;4483;48.622;9.230;2023-03-01T08:11:51;13.50;;;10.83;;
8893;SDS011;4483;48.622;9.230;2023-03-01T08:14:19;13.50;;;10.40;;
8893;SDS011;4483;48.622;9.230;2023-03-01T08:16:48;15.03;;;10.43;;
8893;SDS011;4483;48.622;9.230;2023-03-01T08:19:15;15.80;;;10.30;;
8893;SDS011;4483;48.622;9.230;2023-03-01T08:21:42;16.40;;;11.60;;
8893;SDS011;4483;48.622;9.230;2023-03-01T08:24:10;14.27;;;10.50;;
8893;SDS011;4483;48.622;9.230;2023-03-01T08:26:36;16.87;;;11.30;;
8893;SDS011;4483;48.622;9.230;2023-03-01T08:29:03;14.20;;;10.90;;
8893;SDS011;4483;48.622;9.230;2023-03-01T08:31:30;16.23;;;11.07;;
8893;SDS011;4483;48.622;9.230;2023-03-01T08:34:00;15.50;;;10.97;;
8893;SDS011;4483;48.622;9.230;2023-03-01T08:36:29;16.93;;;11.23;;
8893;SDS011;4483;48.622;9.230;2023-03-01T08:38:57;15.80;;;10.83;;
8893;SDS011;4483;48.622;9.230;2023-03-01T08:41:26;14.03;;;10.97;;
8893;SDS011;4483;48.622;9.230;2023-03-01T08:43:53;15.07;;;11.43;;
8893;SDS011;4483;48.622;9.230;2023-03-01T08:46:23;13.03;;;10.53;;
8893;SDS011;4483;48.622;9.230;2023-03-01T08:48:51;14.63;;;11.27;;
8893;SDS011;4483;48.622;9.230;2023-03-01T08:51:18;14.07;;;11.13;;
8893;SDS011;4483;48.622;9.230;2023-03-01T08:53:46;14.47;;;11.13;;
8893;SDS011;4483;48.622;9.230;2023-03-01T08:56:14;14.13;;;10.90;;
8893;SDS011;4483;48.622;9.230;2023-03-01T08:58:44;15.80;;;11.10;;
8893;SDS011;4483;48.622;9.230;2023-03-01T09:01:12;13.70;;;11.13;;
8893;SDS011;4483;48.622;9.230;2023-03-01T09:03:40;12.93;;;10.33;;
8893;SDS011;4483;48.622;9.230;2023-03-01T09:06:07;13.20;;;10.40;;
8893;SDS011;4483;48.622;9.230;2023-03-01T09:08:35;15.93;;;11.00;;
8893;SDS011;4483;48.622;9.230;2023-03-01T09:11:02;13.63;;;10.60;;
8893;SDS011;4483;48.622;9.230;2023-03-01T09:13:29;11.57;;;10.27;;
8893;SDS011;4483;48.622;9.230;2023-03-01T09:15:58;17.10;;;11.73;;
8893;SDS011;4483;48.622;9.230;2023-03-01T09:18:26;16.17;;;10.83;;
8893;SDS011;4483;48.622;9.230;2023-03-01T09:20:53;14.63;;;10.97;;
8893;SDS011;4483;48.622;9.230;2023-03-01T09:23:26;20.20;;;11.33;;
8893;SDS011;4483;48.622;9.230;2023-03-01T09:25:52;12.73;;;9.87;;
8893;SDS011;4483;48.622;9.230;2023-03-01T09:28:19;15.70;;;11.53;;
8893;SDS011;4483;48.622;9.230;2023-03-01T09:30:48;12.20;;;9.57;;
8893;SDS011;4483;48.622;9.230;2023-03-01T09:33:16;14.00;;;11.07;;
8893;SDS011;4483;48.622;9.230;2023-03-01T09:35:42;15.13;;;11.33;;
8893;SDS011;4483;48.622;9.230;2023-03-01T09:38:11;13.20;;;10.67;;
8893;SDS011;4483;48.622;9.230;2023-03-01T09:40:41;15.10;;;11.03;;
8893;SDS011;4483;48.622;9.230;2023-03-01T09:43:14;13.40;;;10.87;;
8893;SDS011;4483;48.622;9.230;2023-03-01T09:45:48;14.63;;;11.40;;
8893;SDS011;4483;48.622;9.230;2023-03-01T09:48:20;14.73;;;11.47;;
8893;SDS011;4483;48.622;9.230;2023-03-01T09:50:49;13.37;;;10.70;;
8893;SDS011;4483;48.622;9.230;2023-03-01T09:53:18;15.13;;;11.07;;
8893;SDS011;4483;48.622;9.230;2023-03-01T09:55:48;16.43;;;11.60;;
8893;SDS011;4483;48.622;9.230;2023-03-01T09:58:32;14.23;;;11.00;;
8893;SDS011;4483;48.622;9.230;2023-03-01T10:01:10;15.07;;;11.47;;
8893;SDS011;4483;48.622;9.230;2023-03-01T10:03:53;16.43;;;11.90;;
8893;SDS011;4483;48.622;9.230;2023-03-01T10:06:29;16.00;;;10.73;;
8893;SDS011;4483;48.622;9.230;2023-03-01T10:08:56;16.70;;;10.73;;
8893;SDS011;4483;48.622;9.230;2023-03-01T10:11:28;14.47;;;10.93;;
8893;SDS011;4483;48.622;9.230;2023-03-01T10:13:58;13.17;;;10.63;;
8893;SDS011;4483;48.622;9.230;2023-03-01T10:16:34;16.23;;;11.17;;
8893;SDS011;4483;48.622;9.230;2023-03-01T10:19:10;16.70;;;11.67;;
8893;SDS011;4483;48.622;9.230;2023-03-01T10:21:44;13.27;;;11.47;;
8893;SDS011;4483;48.622;9.230;2023-03-01T10:24:12;14.03;;;10.90;;
8893;SDS011;4483;48.622;9.230;2023-03-01T10:26:43;13.63;;;11.27;;
8893;SDS011;4483;48.622;9.230;2023-03-01T10:29:14;13.30;;;11.60;;
8893;SDS011;4483;48.622;9.230;2023-03-01T10:31:43;14.83;;;11.40;;
8893;SDS011;4483;48.622;9.230;2023-03-01T10:34:14;14.37;;;11.37;;
8893;SDS011;4483;48.622;9.230;2023-03-01T10:36:43;13.50;;;10.70;;
8893;SDS011;4483;48.622;9.230;2023-03-01T10:39:12;14.50;;;11.00;;
8893;SDS011;4483;48.622;9.230;2023-03-01T10:41:52;15.03;;;10.83;;
8893;SDS011;4483;48.622;9.230;2023-03-01T10:47:16;15.67;;;11.73;;
8893;SDS011;4483;48.622;9.230;2023-03-01T10:49:55;14.60;;;10.77;;
8893;SDS011;4483;48.622;9.230;2023-03-01T10:52:25;14.33;;;11.17;;
8893;SDS011;4483;48.622;9.230;2023-03-01T10:54:55;12.90;;;10.47;;
8893;SDS011;4483;48.622;9.230;2023-03-01T10:57:34;13.23;;;10.50;;
8893;SDS011;4483;48.622;9.230;2023-03-01T11:03:01;12.33;;;9.97;;
8893;SDS011;4483;48.622;9.230;2023-03-01T11:05:36;13.27;;;9.93;;
8893;SDS011;4483;48.622;9.230;2023-03-01T11:08:03;12.17;;;9.87;;
8893;SDS011;4483;48.622;9.230;2023-03-01T11:10:31;11.63;;;9.60;;
8893;SDS011;4483;48.622;9.230;2023-03-01T11:13:06;13.07;;;10.67;;
8893;SDS011;4483;48.622;9.230;2023-03-01T11:15:34;11.03;;;9.57;;
8893;SDS011;4483;48.622;9.230;2023-03-01T11:18:02;10.30;;;8.83;;
8893;SDS011;4483;48.622;9.230;2023-03-01T11:20:29;11.10;;;9.53;;
8893;SDS011;4483;48.622;9.230;2023-03-01T11:23:00;10.70;;;9.60;;
8893;SDS011;4483;48.622;9.230;2023-03-01T11:25:31;15.03;;;11.30;;
8893;SDS011;4483;48.622;9.230;2023-03-01T11:28:01;15.87;;;10.40;;
8893;SDS011;4483;48.622;9.230;2023-03-01T11:30:31;12.40;;;9.70;;
8893;SDS011;4483;48.622;9.230;2023-03-01T11:33:03;11.33;;;10.13;;
8893;SDS011;4483;48.622;9.230;2023-03-01T11:35:41;13.57;;;10.67;;
8893;SDS011;4483;48.622;9.230;2023-03-01T11:38:23;12.97;;;9.80;;
8893;SDS011;4483;48.622;9.230;2023-03-01T11:40:52;13.27;;;9.67;;
8893;SDS011;4483;48.622;9.230;2023-03-01T11:43:26;11.67;;;9.37;;
8893;SDS011;4483;48.622;9.230;2023-03-01T11:46:05;12.43;;;9.43;;
8893;SDS011;4483;48.622;9.230;2023-03-01T11:48:54;12.10;;;9.70;;
8893;SDS011;4483;48.622;9.230;2023-03-01T11:51:35;10.73;;;9.63;;
8893;SDS011;4483;48.622;9.230;2023-03-01T11:54:20;11.10;;;9.13;;
8893;SDS011;4483;48.622;9.230;2023-03-01T11:56:57;13.80;;;9.63;;
8893;SDS011;4483;48.622;9.230;2023-03-01T11:59:51;10.87;;;9.23;;
8893;SDS011;4483;48.622;9.230;2023-03-01T12:05:42;10.27;;;9.13;;
8893;SDS011;4483;48.622;9.230;2023-03-01T12:08:29;10.67;;;9.03;;
8893;SDS011;4483;48.622;9.230;2023-03-01T12:11:05;11.80;;;10.03;;
8893;SDS011;4483;48.622;9.230;2023-03-01T12:13:52;10.50;;;8.83;;
8893;SDS011;4483;48.622;9.230;2023-03-01T12:16:34;10.90;;;9.23;;
8893;SDS011;4483;48.622;9.230;2023-03-01T12:19:15;11.13;;;9.23;;
8893;SDS011;4483;48.622;9.230;2023-03-01T12:21:59;13.60;;;9.77;;
8893;SDS011;4483;48.622;9.230;2023-03-01T12:24:47;11.90;;;9.73;;
8893;SDS011;4483;48.622;9.230;2023-03-01T12:27:42;12.77;;;10.27;;
8893;SDS011;4483;48.622;9.230;2023-03-01T12:30:24;11.57;;;9.97;;
8893;SDS011;4483;48.622;9.230;2023-03-01T12:33:04;16.13;;;10.57;;
8893;SDS011;4483;48.622;9.230;2023-03-01T12:35:49;11.13;;;9.63;;
8893;SDS011;4483;48.622;9.230;2023-03-01T12:38:32;11.33;;;9.93;;
8893;SDS011;4483;48.622;9.230;2023-03-01T12:41:16;10.20;;;8.77;;
8893;SDS011;4483;48.622;9.230;2023-03-01T12:43:55;11.43;;;9.23;;
8893;SDS011;4483;48.622;9.230;2023-03-01T12:46:33;14.43;;;9.80;;
8893;SDS011;4483;48.622;9.230;2023-03-01T12:49:12;12.97;;;9.07;;
8893;SDS011;4483;48.622;9.230;2023-03-01T12:51:43;13.10;;;10.50;;
8893;SDS011;4483;48.622;9.230;2023-03-01T12:54:15;15.40;;;10.87;;
8893;SDS011;4483;48.622;9.230;2023-03-01T12:56:46;14.50;;;10.33;;
8893;SDS011;4483;48.622;9.230;2023-03-01T12:59:19;16.63;;;11.03;;
8893;SDS011;4483;48.622;9.230;2023-03-01T13:01:52;12.30;;;10.70;;
8893;SDS011;4483;48.622;9.230;2023-03-01T13:04:28;13.80;;;10.87;;
8893;SDS011;4483;48.622;9.230;2023-03-01T13:07:18;12.67;;;9.53;;
8893;SDS011;4483;48.622;9.230;2023-03-01T13:09:55;13.07;;;10.17;;
8893;SDS011;4483;48.622;9.230;2023-03-01T13:15:26;10.97;;;9.83;;
8893;SDS011;4483;48.622;9.230;2023-03-01T13:17:55;13.87;;;9.43;;
8893;SDS011;4483;48.622;9.230;2023-03-01T13:20:24;11.13;;;9.93;;
8893;SDS011;4483;48.622;9.230;2023-03-01T13:23:01;10.93;;;9.77;;
8893;SDS011;4483;48.622;9.230;2023-03-01T13:25:30;11.67;;;10.03;;
8893;SDS011;4483;48.622;9.230;2023-03-01T13:31:05;12.60;;;10.57;;
8893;SDS011;4483;48.622;9.230;2023-03-01T13:33:33;13.23;;;9.93;;
8893;SDS011;4483;48.622;9.230;2023-03-01T13:36:07;11.23;;;9.83;;
8893;SDS011;4483;48.622;9.230;2023-03-01T13:38:36;12.00;;;10.33;;
8893;SDS011;4483;48.622;9.230;2023-03-01T13:41:06;12.67;;;11.20;;
8893;SDS011;4483;48.622;9.230;2023-03-01T13:43:34;12.63;;;10.43;;
8893;SDS011;4483;48.622;9.230;2023-03-01T13:46:02;12.57;;;9.93;;
8893;SDS011;4483;48.622;9.230;2023-03-01T13:48:36;13.97;;;10.60;;
8893;SDS011;4483;48.622;9.230;2023-03-01T13:51:06;12.90;;;10.03;;
8893;SDS011;4483;48.622;9.230;2023-03-01T13:53:35;12.27;;;10.10;;
8893;SDS011;4483;48.622;9.230;2023-03-01T13:56:07;11.27;;;10.03;;
8893;SDS011;4483;48.622;9.230;2023-03-01T13:58:44;14.53;;;10.37;;
8893;SDS011;4483;48.622;9.230;2023-03-01T14:01:21;12.03;;;10.20;;
8893;SDS011;4483;48.622;9.230;2023-03-01T14:03:50;14.07;;;10.43;;
8893;SDS011;4483;48.622;9.230;2023-03-01T14:06:19;13.73;;;10.40;;
8893;SDS011;4483;48.622;9.230;2023-03-01T14:08:48;12.10;;;10.27;;
8893;SDS011;4483;48.622;9.230;2023-03-01T14:11:27;10.70;;;9.50;;
8893;SDS011;4483;48.622;9.230;2023-03-01T14:20:17;10.77;;;9.67;;
8893;SDS011;4483;48.622;9.230;2023-03-01T14:22:45;11.17;;;9.30;;
8893;SDS011;4483;48.622;9.230;2023-03-01T14:28:04;11.87;;;9.53;;
8893;SDS011;4483;48.622;9.230;2023-03-01T14:30:42;14.70;;;9.13;;
8893;SDS011;4483;48.622;9.230;2023-03-01T14:33:22;11.20;;;8.57;;
8893;SDS011;4483;48.622;9.230;2023-03-01T14:35:52;11.67;;;9.73;;
8893;SDS011;4483;48.622;9.230;2023-03-01T14:38:22;10.00;;;9.00;;
8893;SDS011;4483;48.622;9.230;2023-03-01T14:40:51;9.67;;;8.63;;
8893;SDS011;4483;48.622;9.230;2023-03-01T14:43:22;10.67;;;9.27;;
8893;SDS011;4483;48.622;9.230;2023-03-01T14:45:50;10.60;;;8.87;;
8893;SDS011;4483;48.622;9.230;2023-03-01T14:48:17;10.03;;;8.83;;
8893;SDS011;4483;48.622;9.230;2023-03-01T14:50:47;11.10;;;9.40;;
8893;SDS011;4483;48.622;9.230;2023-03-01T14:53:16;11.13;;;9.40;;
8893;SDS011;4483;48.622;9.230;2023-03-01T14:55:46;10.93;;;9.27;;
8893;SDS011;4483;48.622;9.230;2023-03-01T14:58:18;12.57;;;10.53;;
8893;SDS011;4483;48.622;9.230;2023-03-01T15:00:48;10.13;;;9.13;;
8893;SDS011;4483;48.622;9.230;2023-03-01T15:03:18;11.23;;;9.10;;
8893;SDS011;4483;48.622;9.230;2023-03-01T15:05:52;11.63;;;9.87;;
8893;SDS011;4483;48.622;9.230;2023-03-01T15:08:20;13.63;;;9.83;;
8893;SDS011;4483;48.622;9.230;2023-03-01T15:10:57;12.23;;;10.07;;
8893;SDS011;4483;48.622;9.230;2023-03-01T15:13:26;12.90;;;10.20;;
8893;SDS011;4483;48.622;9.230;2023-03-01T15:16:00;12.93;;;10.27;;
8893;SDS011;4483;48.622;9.230;2023-03-01T15:18:30;10.27;;;8.87;;
8893;SDS011;4483;48.622;9.230;2023-03-01T15:21:06;13.83;;;10.63;;
8893;SDS011;4483;48.622;9.230;2023-03-01T15:23:34;12.87;;;9.77;;
8893;SDS011;4483;48.622;9.230;2023-03-01T15:26:03;15.53;;;9.30;;
8893;SDS011;4483;48.622;9.230;2023-03-01T15:28:30;14.53;;;10.47;;
8893;SDS011;4483;48.622;9.230;2023-03-01T15:31:00;11.97;;;10.67;;
8893;SDS011;4483;48.622;9.230;2023-03-01T15:33:31;13.33;;;10.00;;
8893;SDS011;4483;48.622;9.230;2023-03-01T15:36:00;13.50;;;10.30;;
8893;SDS011;4483;48.622;9.230;2023-03-01T15:38:31;11.37;;;9.40;;